createdAt,value
2023-01-22T00:00:29.890Z,40.67
2023-01-22T00:05:31.799Z,50.10
2023-01-22T00:10:33.751Z,45.43
2023-01-22T00:15:38.736Z,46.97
2023-01-22T00:20:41.770Z,40.27
2023-01-22T00:25:44.226Z,48.53
2023-01-22T00:30:46.190Z,45.20
2023-01-22T00:35:47.962Z,43.10
2023-01-22T00:40:49.768Z,35.07
2023-01-22T00:45:51.652Z,42.67
2023-01-22T00:50:54.899Z,45.87
2023-01-22T00:56:01.435Z,38.00
2023-01-22T01:01:04.972Z,41.97
2023-01-22T01:06:13.006Z,48.63
2023-01-22T01:11:18.314Z,45.70
2023-01-22T01:16:26.731Z,47.80
2023-01-22T01:21:29.083Z,42.33
2023-01-22T01:26:31.071Z,43.47
2023-01-22T01:31:33.111Z,43.20
2023-01-22T01:36:48.363Z,43.27
2023-01-22T01:41:51.503Z,39.90
2023-01-22T01:46:53.272Z,38.97
2023-01-22T01:51:57.795Z,29.63
2023-01-22T01:57:18.369Z,36.03
2023-01-22T02:02:20.752Z,41.40
2023-01-22T02:07:23.884Z,42.20
2023-01-22T02:12:25.985Z,36.87
2023-01-22T02:17:27.917Z,41.37
2023-01-22T02:22:32.306Z,40.97
2023-01-22T02:27:35.132Z,41.33
2023-01-22T02:32:37.212Z,41.13
2023-01-22T02:37:39.105Z,48.13
2023-01-22T02:42:41.852Z,46.27
2023-01-22T02:47:43.770Z,43.07
2023-01-22T02:52:45.611Z,41.30
2023-01-22T02:57:47.797Z,41.10
2023-01-22T03:02:49.799Z,39.43
2023-01-22T03:07:51.838Z,40.50
2023-01-22T03:13:12.765Z,38.97
2023-01-22T03:18:34.274Z,43.20
2023-01-22T03:23:37.545Z,41.07
2023-01-22T03:28:40.012Z,41.93
2023-01-22T03:33:43.351Z,37.10
2023-01-22T03:38:46.852Z,40.20
2023-01-22T03:43:53.650Z,37.03
2023-01-22T03:49:00.726Z,43.40
2023-01-22T03:54:02.909Z,36.90
2023-01-22T03:59:04.900Z,36.10
2023-01-22T04:04:08.068Z,43.80
2023-01-22T04:09:10.180Z,35.00
2023-01-22T04:14:16.231Z,34.83
2023-01-22T04:19:30.505Z,41.07
2023-01-22T04:24:32.357Z,42.60
2023-01-22T04:29:35.575Z,36.70
2023-01-22T04:34:40.710Z,38.93
2023-01-22T04:39:54.752Z,42.37
2023-01-22T04:44:57.467Z,38.30
2023-01-22T04:49:59.505Z,44.17
2023-01-22T04:55:01.536Z,43.20
2023-01-22T05:00:15.206Z,39.30
2023-01-22T05:05:17.790Z,44.77
2023-01-22T05:10:20.600Z,39.30
2023-01-22T05:15:24.698Z,44.43
2023-01-22T05:20:30.298Z,42.20
2023-01-22T05:25:33.842Z,37.03
2023-01-22T05:30:39.073Z,40.20
2023-01-22T05:35:58.381Z,38.00
2023-01-22T05:41:00.508Z,38.03
2023-01-22T05:46:06.720Z,32.93
2023-01-22T05:51:26.118Z,30.53
2023-01-22T05:56:28.499Z,36.10
2023-01-22T06:01:30.447Z,29.80
2023-01-22T06:06:34.219Z,21.13
2023-01-22T06:11:36.482Z,25.63
2023-01-22T06:16:39.070Z,24.00
2023-01-22T06:21:45.291Z,30.17
2023-01-22T06:26:47.581Z,30.67
2023-01-22T06:31:50.601Z,33.30
2023-01-22T06:36:54.217Z,35.47
2023-01-22T06:41:58.244Z,30.00
2023-01-22T06:47:00.379Z,31.33
2023-01-22T06:52:06.893Z,27.47
2023-01-22T06:57:08.864Z,30.20
2023-01-22T07:02:17.849Z,31.57
2023-01-22T07:07:19.875Z,29.77
2023-01-22T07:12:21.785Z,26.83
2023-01-22T07:17:23.591Z,30.93
2023-01-22T07:22:25.586Z,30.57
2023-01-22T07:27:27.794Z,27.87
2023-01-22T07:32:30.157Z,27.33
2023-01-22T07:37:31.945Z,22.27
2023-01-22T07:42:34.001Z,28.13
2023-01-22T07:47:36.789Z,31.03
2023-01-22T07:52:39.264Z,26.27
2023-01-22T07:57:41.243Z,30.53
2023-01-22T08:02:43.280Z,24.37
2023-01-22T08:07:45.091Z,23.73
2023-01-22T08:12:47.088Z,22.33
2023-01-22T08:17:51.045Z,19.70
2023-01-22T08:23:00.049Z,23.50
2023-01-22T08:28:03.490Z,25.20
2023-01-22T08:33:05.698Z,24.73
2023-01-22T08:38:07.742Z,24.67
2023-01-22T08:43:09.667Z,21.70
2023-01-22T08:48:11.492Z,20.90
2023-01-22T08:53:13.312Z,22.13
2023-01-22T08:58:15.194Z,22.57
2023-01-22T09:03:17.330Z,24.90
2023-01-22T09:08:19.732Z,24.33
2023-01-22T09:13:21.756Z,23.97
2023-01-22T09:18:24.044Z,19.27
2023-01-22T09:23:25.801Z,22.90
2023-01-22T09:28:27.731Z,19.93
2023-01-22T09:33:29.860Z,22.97
2023-01-22T09:38:31.710Z,20.93
2023-01-22T09:44:06.567Z,19.53
2023-01-22T09:49:21.497Z,20.20
2023-01-22T09:54:24.582Z,23.50
2023-01-22T09:59:38.654Z,27.33
2023-01-22T10:04:45.157Z,24.47
2023-01-22T10:09:52.652Z,22.80
2023-01-22T10:14:55.033Z,26.53
2023-01-22T10:20:02.682Z,27.73
2023-01-22T10:25:05.120Z,27.40
2023-01-22T10:30:23.673Z,23.30
2023-01-22T10:35:25.852Z,24.27
2023-01-22T10:40:40.885Z,23.00
2023-01-22T10:45:53.340Z,23.13
2023-01-22T10:51:03.273Z,19.13
2023-01-22T10:56:12.440Z,22.17
2023-01-22T11:01:36.223Z,21.47
2023-01-22T11:06:44.488Z,23.20
2023-01-22T11:11:57.537Z,20.60
2023-01-22T11:17:09.462Z,17.47
2023-01-22T11:22:22.039Z,21.17
2023-01-22T11:27:55.892Z,19.57
2023-01-22T11:33:19.676Z,18.97
2023-01-22T11:38:40.143Z,23.90
2023-01-22T11:43:42.003Z,21.13
2023-01-22T11:48:53.054Z,19.97
2023-01-22T11:54:06.369Z,17.27
2023-01-22T11:59:11.645Z,20.23
2023-01-22T12:04:29.941Z,15.73
2023-01-22T12:09:49.173Z,23.77
2023-01-22T12:15:06.016Z,19.93
2023-01-22T12:20:23.889Z,21.00
2023-01-22T12:25:46.891Z,21.77
2023-01-22T12:31:04.155Z,18.73
2023-01-22T12:36:13.077Z,21.53
2023-01-22T12:41:53.475Z,24.37
2023-01-22T12:47:21.428Z,25.63
2023-01-22T12:52:32.471Z,19.60
2023-01-22T12:57:41.870Z,26.40
2023-01-22T13:02:43.826Z,26.37
2023-01-22T13:07:47.180Z,16.07
2023-01-22T13:12:51.031Z,22.47
2023-01-22T13:18:07.208Z,22.83
2023-01-22T13:23:13.038Z,22.47
2023-01-22T13:28:18.903Z,25.67
2023-01-22T13:33:20.883Z,22.13
2023-01-22T13:38:28.300Z,20.07
2023-01-22T13:43:30.467Z,26.07
2023-01-22T13:48:32.695Z,28.13
2023-01-22T13:53:42.497Z,30.47
2023-01-22T13:58:49.289Z,17.90
2023-01-22T14:04:02.249Z,20.93
2023-01-22T14:09:04.055Z,22.27
2023-01-22T14:14:18.818Z,19.70
2023-01-22T14:19:20.803Z,22.67
2023-01-22T14:24:22.752Z,17.40
2023-01-22T14:29:24.528Z,18.77
2023-01-22T14:34:26.357Z,18.63
2023-01-22T14:39:32.685Z,16.93
2023-01-22T14:44:35.704Z,19.57
2023-01-22T14:49:39.432Z,19.37
2023-01-22T14:54:41.377Z,18.80
2023-01-22T14:59:43.374Z,17.20
2023-01-22T15:04:45.565Z,18.43
2023-01-22T15:09:47.476Z,20.60
2023-01-22T15:14:49.468Z,23.00
2023-01-22T15:19:51.530Z,14.67
2023-01-22T15:24:53.568Z,18.70
2023-01-22T15:29:55.514Z,18.90
2023-01-22T15:34:57.504Z,17.00
2023-01-22T15:39:59.931Z,19.17
2023-01-22T15:45:03.893Z,19.77
2023-01-22T15:50:06.235Z,19.07
2023-01-22T15:55:08.621Z,23.63
2023-01-22T16:00:11.647Z,21.27
2023-01-22T16:05:16.556Z,21.73
2023-01-22T16:10:18.939Z,20.30
2023-01-22T16:15:20.984Z,18.90
2023-01-22T16:20:23.053Z,23.13
2023-01-22T16:25:24.840Z,17.87
2023-01-22T16:30:26.793Z,21.70
2023-01-22T16:35:28.918Z,25.10
2023-01-22T16:40:31.529Z,20.90
2023-01-22T16:45:34.688Z,18.33
2023-01-22T16:50:36.796Z,20.37
2023-01-22T16:55:38.707Z,21.60
2023-01-22T17:00:41.274Z,24.50
2023-01-22T17:05:43.226Z,24.80
2023-01-22T17:10:45.069Z,22.83
2023-01-22T17:15:52.531Z,20.97
2023-01-22T17:21:02.159Z,22.90
2023-01-22T17:26:10.184Z,25.50
2023-01-22T17:31:15.577Z,22.30
2023-01-22T17:36:22.528Z,24.13
2023-01-22T17:41:25.416Z,23.63
2023-01-22T17:46:31.518Z,21.33
2023-01-22T17:51:35.601Z,24.53
2023-01-22T17:56:42.927Z,24.60
2023-01-22T18:01:45.189Z,23.63
2023-01-22T18:06:47.341Z,23.50
2023-01-22T18:11:49.312Z,25.77
2023-01-22T18:16:51.283Z,26.60
2023-01-22T18:21:53.129Z,24.93
2023-01-22T18:26:55.195Z,26.30
2023-01-22T18:31:57.166Z,22.50
2023-01-22T18:36:59.101Z,27.57
2023-01-22T18:42:01.080Z,21.57
2023-01-22T18:47:03.811Z,26.53
2023-01-22T18:52:05.668Z,25.73
2023-01-22T18:57:07.610Z,23.67
2023-01-22T19:02:12.329Z,24.07
2023-01-22T19:07:14.205Z,26.80
2023-01-22T19:12:18.852Z,24.60
2023-01-22T19:17:20.915Z,26.23
2023-01-22T19:22:23.753Z,30.47
2023-01-22T19:27:25.558Z,31.00
2023-01-22T19:32:30.153Z,28.40
2023-01-22T19:37:32.681Z,27.30
2023-01-22T19:42:34.661Z,26.50
2023-01-22T19:47:36.620Z,27.87
2023-01-22T19:52:38.641Z,29.63
2023-01-22T19:57:40.476Z,25.40
2023-01-22T20:02:42.591Z,26.67
2023-01-22T20:07:45.333Z,27.20
2023-01-22T20:12:50.213Z,27.47
2023-01-22T20:17:52.385Z,26.13
2023-01-22T20:22:54.231Z,28.73
2023-01-22T20:27:57.637Z,26.40
2023-01-22T20:32:59.672Z,25.50
2023-01-22T20:38:01.604Z,28.43
2023-01-22T20:43:03.400Z,31.30
2023-01-22T20:48:05.387Z,32.33
2023-01-22T20:53:07.754Z,27.77
2023-01-22T20:58:09.604Z,34.70
2023-01-22T21:03:11.443Z,31.53
2023-01-22T21:08:14.931Z,29.37
2023-01-22T21:13:18.025Z,32.77
2023-01-22T21:18:21.790Z,33.77
2023-01-22T21:23:23.577Z,34.77
2023-01-22T21:28:25.766Z,36.37
2023-01-22T21:33:27.852Z,36.37
2023-01-22T21:38:29.746Z,40.60
2023-01-22T21:43:50.267Z,33.67
2023-01-22T21:48:54.316Z,40.27
2023-01-22T21:53:58.047Z,36.57
2023-01-22T21:58:59.948Z,31.53
2023-01-22T22:04:03.734Z,31.00
2023-01-22T22:09:12.370Z,37.67
2023-01-22T22:14:17.038Z,33.00
2023-01-22T22:19:19.983Z,35.10
2023-01-22T22:24:22.100Z,29.73
2023-01-22T22:29:24.053Z,34.43
2023-01-22T22:34:25.861Z,28.70
2023-01-22T22:39:27.882Z,31.60
2023-01-22T22:44:29.708Z,34.70
2023-01-22T22:49:31.822Z,29.00
2023-01-22T22:54:33.814Z,31.33
2023-01-22T22:59:35.637Z,28.50
2023-01-22T23:04:37.631Z,35.53
2023-01-22T23:09:39.674Z,29.70
2023-01-22T23:14:41.513Z,33.20
2023-01-22T23:19:43.612Z,26.73
2023-01-22T23:24:46.514Z,36.47
2023-01-22T23:29:48.461Z,32.40
2023-01-22T23:34:50.520Z,36.33
2023-01-22T23:39:52.485Z,29.53
2023-01-22T23:44:54.303Z,31.27
2023-01-22T23:49:56.077Z,31.27
2023-01-22T23:54:58.027Z,34.40
